Time;durP1;ratioP1;P1;durP2;ratioP2;P2;SDS_P1;SDS_P2;PMS_P1;PMS_P2;Temp;Humidity;BMP_temperature;BMP_pressure;BME280_temperature;BME280_humidity;BME280_pressure;Samples;Min_cycle;Max_cycle;Signal;HPM_P1;HPM_P2
2022/11/18 00:01:20;;;;;;;0.30;0.30;;;;;;;;;;5112666;28;20066;-72
2022/11/18 00:03:47;;;;;;;0.10;0.10;;;;;;;;;;5111965;28;20483;-71
2022/11/18 00:06:14;;;;;;;0.10;0.10;;;;;;;;;;5112106;28;20089;-71
2022/11/18 00:08:40;;;;;;;0.10;0.10;;;;;;;;;;5111834;28;20028;-71
2022/11/18 00:11:10;;;;;;;0.32;0.32;;;;;;;;;;5111169;28;20027;-71
2022/11/18 00:16:23;;;;;;;0.10;0.10;;;;;;;;;;5113386;28;20463;-70
2022/11/18 00:18:49;;;;;;;0.85;0.47;;;;;;;;;;5115733;28;20486;-70
2022/11/18 00:21:15;;;;;;;1.27;0.70;;;;;;;;;;5115642;28;20042;-70
2022/11/18 00:23:40;;;;;;;0.28;0.28;;;;;;;;;;5115613;28;20470;-70
2022/11/18 00:26:11;;;;;;;0.20;0.20;;;;;;;;;;5114148;28;20034;-70
2022/11/18 00:28:37;;;;;;;0.20;0.20;;;;;;;;;;5114606;28;20035;-70
2022/11/18 00:31:05;;;;;;;0.15;0.15;;;;;;;;;;5115413;28;20024;-70
2022/11/18 00:33:31;;;;;;;0.10;0.10;;;;;;;;;;5115219;28;20081;-70
2022/11/18 00:35:57;;;;;;;0.20;0.20;;;;;;;;;;5115488;28;20035;-70
2022/11/18 00:38:23;;;;;;;0.45;0.35;;;;;;;;;;5115322;28;20489;-70
2022/11/18 00:40:49;;;;;;;0.30;0.30;;;;;;;;;;5115377;28;20043;-70
2022/11/18 00:43:15;;;;;;;0.20;0.20;;;;;;;;;;5115205;28;20348;-70
2022/11/18 00:45:41;;;;;;;0.38;0.38;;;;;;;;;;5115336;28;20028;-70
2022/11/18 00:48:07;;;;;;;0.20;0.20;;;;;;;;;;5115016;28;20027;-72
2022/11/18 00:50:33;;;;;;;0.20;0.20;;;;;;;;;;5103619;28;20463;-70
2022/11/18 00:52:59;;;;;;;1.75;1.65;;;;;;;;;;5094584;28;20055;-70
2022/11/18 00:55:25;;;;;;;1.00;0.95;;;;;;;;;;5102473;28;20069;-71
2022/11/18 00:57:52;;;;;;;0.30;0.30;;;;;;;;;;5113646;28;20031;-70
2022/11/18 01:00:18;;;;;;;0.80;0.80;;;;;;;;;;5110388;28;20115;-72
2022/11/18 01:02:44;;;;;;;0.40;0.40;;;;;;;;;;5094418;28;20450;-71
2022/11/18 01:05:09;;;;;;;0.25;0.25;;;;;;;;;;5094614;28;20059;-71
2022/11/18 01:07:36;;;;;;;0.30;0.30;;;;;;;;;;5094308;28;20438;-71
2022/11/18 01:10:02;;;;;;;0.20;0.20;;;;;;;;;;5094174;28;20036;-71
2022/11/18 01:15:12;;;;;;;0.20;0.20;;;;;;;;;;5094193;28;20068;-72
2022/11/18 01:17:37;;;;;;;0.20;0.20;;;;;;;;;;5094154;28;20056;-70
2022/11/18 01:20:04;;;;;;;0.20;0.20;;;;;;;;;;5092790;28;20040;-71
2022/11/18 01:22:29;;;;;;;0.28;0.28;;;;;;;;;;5093950;28;20028;-72
2022/11/18 01:24:55;;;;;;;0.10;0.10;;;;;;;;;;5094011;28;20028;-71
2022/11/18 01:27:21;;;;;;;0.10;0.10;;;;;;;;;;5093881;28;20020;-71
2022/11/18 01:29:47;;;;;;;0.50;0.50;;;;;;;;;;5094125;28;20027;-71
2022/11/18 01:32:13;;;;;;;0.20;0.20;;;;;;;;;;5094300;28;20028;-71
2022/11/18 01:34:39;;;;;;;0.40;0.40;;;;;;;;;;5092419;28;20044;-71
2022/11/18 01:37:05;;;;;;;0.40;0.40;;;;;;;;;;5093823;28;20035;-71
2022/11/18 01:39:32;;;;;;;0.30;0.30;;;;;;;;;;5092683;28;20457;-71
2022/11/18 01:41:58;;;;;;;1.15;1.05;;;;;;;;;;5092657;28;20107;-71
2022/11/18 01:44:42;;;;;;;0.10;0.10;;;;;;;;;;5093832;28;20030;-72
2022/11/18 01:47:08;;;;;;;0.20;0.20;;;;;;;;;;5093692;28;20031;-72
2022/11/18 01:49:34;;;;;;;0.30;0.30;;;;;;;;;;5093476;28;20040;-70
2022/11/18 01:52:00;;;;;;;0.10;0.10;;;;;;;;;;5095538;28;20503;-70
2022/11/18 01:54:28;;;;;;;0.17;0.17;;;;;;;;;;5093820;28;20059;-72
2022/11/18 01:56:56;;;;;;;0.20;0.20;;;;;;;;;;5099080;28;20027;-71
2022/11/18 01:59:24;;;;;;;0.38;0.38;;;;;;;;;;5095796;28;20096;-71
2022/11/18 02:01:50;;;;;;;0.20;0.20;;;;;;;;;;5107991;28;20036;-71
2022/11/18 02:04:16;;;;;;;0.20;0.20;;;;;;;;;;5095091;28;20035;-72
2022/11/18 02:06:43;;;;;;;0.32;0.32;;;;;;;;;;5103302;28;20027;-72
2022/11/18 02:09:09;;;;;;;0.20;0.20;;;;;;;;;;5093312;28;20107;-71
2022/11/18 02:11:50;;;;;;;0.20;0.20;;;;;;;;;;5098287;28;20115;-72
2022/11/18 02:14:18;;;;;;;0.20;0.20;;;;;;;;;;5103179;28;20352;-72
2022/11/18 02:17:03;;;;;;;0.50;0.50;;;;;;;;;;5099961;28;20028;-71
2022/11/18 02:19:47;;;;;;;0.20;0.20;;;;;;;;;;5099272;28;20040;-71
2022/11/18 02:22:12;;;;;;;0.30;0.30;;;;;;;;;;5104806;28;20031;-71
2022/11/18 02:24:58;;;;;;;1.30;1.30;;;;;;;;;;5111457;28;20024;-71
2022/11/18 02:27:42;;;;;;;0.10;0.10;;;;;;;;;;5109635;28;20472;-70
2022/11/18 02:30:10;;;;;;;0.10;0.10;;;;;;;;;;5102438;28;20111;-71
2022/11/18 02:32:40;;;;;;;0.20;0.20;;;;;;;;;;5092441;28;20085;-71
2022/11/18 02:35:06;;;;;;;0.20;0.20;;;;;;;;;;5093536;28;20411;-70
2022/11/18 02:37:35;;;;;;;0.20;0.20;;;;;;;;;;5113432;28;20016;-72
2022/11/18 02:40:27;;;;;;;0.20;0.20;;;;;;;;;;5113246;28;20031;-72
2022/11/18 02:42:59;;;;;;;0.28;0.28;;;;;;;;;;5111244;28;20040;-72
2022/11/18 02:45:25;;;;;;;0.20;0.20;;;;;;;;;;5113823;28;20459;-72
2022/11/18 02:47:52;;;;;;;0.13;0.13;;;;;;;;;;5108502;28;20027;-73
2022/11/18 02:50:20;;;;;;;0.20;0.20;;;;;;;;;;5105037;28;20123;-72
2022/11/18 02:52:47;;;;;;;0.20;0.20;;;;;;;;;;5097977;28;20039;-72
2022/11/18 02:55:14;;;;;;;0.20;0.20;;;;;;;;;;5110381;28;20073;-72
2022/11/18 02:57:41;;;;;;;0.20;0.20;;;;;;;;;;5113399;28;20069;-72
2022/11/18 03:00:06;;;;;;;1.05;1.05;;;;;;;;;;5109752;28;20093;-72
2022/11/18 03:02:59;;;;;;;0.20;0.20;;;;;;;;;;5093329;28;20048;-71
2022/11/18 03:05:31;;;;;;;0.10;0.10;;;;;;;;;;5091286;28;20035;-71
2022/11/18 03:07:59;;;;;;;0.10;0.10;;;;;;;;;;5092795;28;20024;-71
2022/11/18 03:10:28;;;;;;;0.20;0.20;;;;;;;;;;5092855;28;20077;-71
2022/11/18 03:13:16;;;;;;;0.20;0.20;;;;;;;;;;5093035;28;20032;-72
2022/11/18 03:15:50;;;;;;;0.10;0.10;;;;;;;;;;5092667;28;20079;-73
2022/11/18 03:18:31;;;;;;;0.17;0.17;;;;;;;;;;5093152;28;20111;-72
2022/11/18 03:21:03;;;;;;;0.20;0.20;;;;;;;;;;5091741;28;20036;-71
2022/11/18 03:23:35;;;;;;;0.20;0.20;;;;;;;;;;5092707;28;20024;-72
2022/11/18 03:26:02;;;;;;;0.20;0.20;;;;;;;;;;5093558;28;20070;-72
2022/11/18 03:28:43;;;;;;;0.10;0.10;;;;;;;;;;5096738;28;20034;-73
2022/11/18 03:31:21;;;;;;;0.10;0.10;;;;;;;;;;5095644;28;20032;-72
2022/11/18 03:33:49;;;;;;;0.45;0.45;;;;;;;;;;5094848;28;20051;-72
2022/11/18 03:36:16;;;;;;;0.20;0.20;;;;;;;;;;5096052;28;20035;-74
2022/11/18 03:38:46;;;;;;;0.17;0.17;;;;;;;;;;5095928;28;20387;-74
2022/11/18 03:41:13;;;;;;;0.10;0.10;;;;;;;;;;5094855;28;20039;-73
2022/11/18 03:43:43;;;;;;;0.13;0.13;;;;;;;;;;5095993;28;20420;-74
2022/11/18 03:46:08;;;;;;;0.10;0.10;;;;;;;;;;5095938;28;20028;-73
2022/11/18 03:48:37;;;;;;;0.75;0.50;;;;;;;;;;5096083;28;20073;-74
2022/11/18 03:51:08;;;;;;;0.30;0.20;;;;;;;;;;5095711;28;20577;-73
2022/11/18 03:53:36;;;;;;;0.13;0.13;;;;;;;;;;5094749;28;20028;-74
2022/11/18 03:56:08;;;;;;;0.20;0.20;;;;;;;;;;5096269;28;20425;-74
2022/11/18 03:58:41;;;;;;;0.80;0.38;;;;;;;;;;5095630;28;20036;-72
2022/11/18 04:01:18;;;;;;;0.35;0.28;;;;;;;;;;5094363;28;20032;-72
2022/11/18 04:03:44;;;;;;;0.20;0.20;;;;;;;;;;5090828;27;20032;-73
2022/11/18 04:06:24;;;;;;;0.20;0.20;;;;;;;;;;5091912;28;20479;-72
2022/11/18 04:08:53;;;;;;;5.57;1.05;;;;;;;;;;5091854;28;20028;-72
2022/11/18 04:14:08;;;;;;;0.22;0.22;;;;;;;;;;5091613;28;20491;-72
2022/11/18 04:16:44;;;;;;;0.20;0.20;;;;;;;;;;5091279;28;20058;-72
2022/11/18 04:19:10;;;;;;;0.15;0.15;;;;;;;;;;5091442;28;20035;-72
2022/11/18 04:21:36;;;;;;;5.63;0.50;;;;;;;;;;5091283;28;20032;-72
2022/11/18 04:24:02;;;;;;;0.95;0.73;;;;;;;;;;5091757;28;20035;-72
2022/11/18 04:26:30;;;;;;;0.10;0.10;;;;;;;;;;5091229;28;20024;-72
2022/11/18 04:28:56;;;;;;;0.10;0.10;;;;;;;;;;5110773;28;20498;-72
2022/11/18 04:31:22;;;;;;;0.15;0.15;;;;;;;;;;5104467;28;20032;-72
2022/11/18 04:33:48;;;;;;;0.20;0.20;;;;;;;;;;5093227;28;20199;-72
2022/11/18 04:36:14;;;;;;;0.10;0.10;;;;;;;;;;5104808;28;20022;-71
2022/11/18 04:38:40;;;;;;;0.20;0.20;;;;;;;;;;5110868;28;20139;-71
2022/11/18 04:41:06;;;;;;;0.60;0.60;;;;;;;;;;5110256;28;20526;-71
2022/11/18 04:43:31;;;;;;;0.22;0.22;;;;;;;;;;5091262;28;20036;-71
2022/11/18 04:45:57;;;;;;;0.20;0.20;;;;;;;;;;5089793;28;20028;-72
2022/11/18 04:48:23;;;;;;;0.30;0.30;;;;;;;;;;5091273;28;20020;-73
2022/11/18 04:50:49;;;;;;;12.40;5.45;;;;;;;;;;5090499;28;20023;-73
2022/11/18 04:53:15;;;;;;;0.40;0.40;;;;;;;;;;5091346;28;20077;-73
2022/11/18 04:55:42;;;;;;;0.20;0.20;;;;;;;;;;5090602;28;20392;-73
2022/11/18 04:58:07;;;;;;;0.20;0.20;;;;;;;;;;5090590;28;20089;-73
2022/11/18 05:00:33;;;;;;;0.20;0.20;;;;;;;;;;5090691;28;20426;-72
2022/11/18 05:02:59;;;;;;;0.20;0.20;;;;;;;;;;5090650;28;20028;-73
2022/11/18 05:05:25;;;;;;;0.20;0.20;;;;;;;;;;5091192;28;20400;-73
2022/11/18 05:07:52;;;;;;;0.45;0.45;;;;;;;;;;5091016;28;20028;-73
2022/11/18 05:10:18;;;;;;;0.20;0.20;;;;;;;;;;5089532;28;20464;-73
2022/11/18 05:12:51;;;;;;;1.27;0.40;;;;;;;;;;5098661;28;20093;-73
2022/11/18 05:15:18;;;;;;;3.30;0.90;;;;;;;;;;5110832;28;20111;-73
2022/11/18 05:17:44;;;;;;;2.25;0.82;;;;;;;;;;5100238;28;20035;-72
2022/11/18 05:20:10;;;;;;;0.20;0.20;;;;;;;;;;5090270;28;20036;-72
2022/11/18 05:22:36;;;;;;;0.40;0.38;;;;;;;;;;5101272;28;20535;-73
2022/11/18 05:25:02;;;;;;;1.98;1.05;;;;;;;;;;5110386;28;20028;-73
2022/11/18 05:27:28;;;;;;;0.40;0.40;;;;;;;;;;5092243;28;20028;-73
2022/11/18 05:29:54;;;;;;;0.20;0.20;;;;;;;;;;5090672;28;20352;-73
2022/11/18 05:32:20;;;;;;;4.63;1.05;;;;;;;;;;5091245;28;20040;-72
2022/11/18 05:34:46;;;;;;;0.82;0.20;;;;;;;;;;5093312;28;20044;-73
2022/11/18 05:37:12;;;;;;;0.43;0.20;;;;;;;;;;5097761;28;20410;-72
2022/11/18 05:39:38;;;;;;;0.38;0.38;;;;;;;;;;5109997;28;20027;-73
2022/11/18 05:44:50;;;;;;;2.30;0.30;;;;;;;;;;5105199;28;20023;-73
2022/11/18 05:47:17;;;;;;;0.20;0.20;;;;;;;;;;5098114;28;20023;-72
2022/11/18 05:49:42;;;;;;;1.23;0.45;;;;;;;;;;5087598;28;20036;-72
2022/11/18 05:52:08;;;;;;;0.30;0.30;;;;;;;;;;5089729;28;20548;-72
2022/11/18 05:54:37;;;;;;;7.00;1.75;;;;;;;;;;5091811;28;20555;-72
2022/11/18 05:57:03;;;;;;;0.40;0.40;;;;;;;;;;5089379;28;20027;-72
2022/11/18 05:59:29;;;;;;;10.80;1.98;;;;;;;;;;5104340;28;20035;-72
2022/11/18 06:02:01;;;;;;;0.13;0.13;;;;;;;;;;5099284;28;20019;-73
2022/11/18 06:04:30;;;;;;;1.23;0.43;;;;;;;;;;5088465;28;20028;-74
2022/11/18 06:06:59;;;;;;;0.60;0.25;;;;;;;;;;5087757;28;20024;-74
2022/11/18 06:09:26;;;;;;;0.45;0.45;;;;;;;;;;5090259;28;20046;-73
2022/11/18 06:11:53;;;;;;;0.73;0.52;;;;;;;;;;5103334;28;20035;-72
2022/11/18 06:14:30;;;;;;;1.58;0.45;;;;;;;;;;5108329;28;20028;-73
2022/11/18 06:16:59;;;;;;;0.50;0.50;;;;;;;;;;5095023;28;20125;-72
2022/11/18 06:19:25;;;;;;;0.20;0.20;;;;;;;;;;5088489;28;20085;-71
2022/11/18 06:21:51;;;;;;;0.22;0.22;;;;;;;;;;5097008;28;20039;-72
2022/11/18 06:24:17;;;;;;;0.20;0.20;;;;;;;;;;5106745;28;20032;-72
2022/11/18 06:26:44;;;;;;;0.20;0.20;;;;;;;;;;5108453;28;20126;-71
2022/11/18 06:29:12;;;;;;;0.40;0.40;;;;;;;;;;5103289;28;20111;-71
2022/11/18 06:31:37;;;;;;;0.20;0.20;;;;;;;;;;5098672;28;20114;-71
2022/11/18 06:34:03;;;;;;;0.20;0.20;;;;;;;;;;5109117;28;20583;-72
2022/11/18 06:36:29;;;;;;;0.20;0.20;;;;;;;;;;5091517;28;20444;-70
2022/11/18 06:38:54;;;;;;;0.20;0.20;;;;;;;;;;5107798;28;20074;-73
2022/11/18 06:41:20;;;;;;;0.20;0.20;;;;;;;;;;5108325;28;20055;-72
2022/11/18 06:43:46;;;;;;;0.30;0.30;;;;;;;;;;5098985;28;20020;-72
2022/11/18 06:49:00;;;;;;;0.20;0.20;;;;;;;;;;5099159;28;20024;-73
2022/11/18 06:51:27;;;;;;;0.20;0.20;;;;;;;;;;5099410;28;20031;-72
2022/11/18 06:53:53;;;;;;;0.10;0.10;;;;;;;;;;5093542;28;20094;-72
2022/11/18 06:56:20;;;;;;;0.20;0.20;;;;;;;;;;5089447;28;20035;-72
2022/11/18 06:58:46;;;;;;;0.22;0.22;;;;;;;;;;5089144;28;20116;-72
2022/11/18 07:01:11;;;;;;;0.20;0.20;;;;;;;;;;5090480;28;20047;-72
2022/11/18 07:03:38;;;;;;;0.20;0.20;;;;;;;;;;5108716;27;20023;-72
2022/11/18 07:06:03;;;;;;;0.10;0.10;;;;;;;;;;5095708;28;20028;-73
2022/11/18 07:08:29;;;;;;;0.20;0.20;;;;;;;;;;5113965;27;20031;-73
2022/11/18 07:10:55;;;;;;;0.20;0.20;;;;;;;;;;5094645;27;20379;-73
2022/11/18 07:13:20;;;;;;;0.30;0.30;;;;;;;;;;5095841;28;20110;-73
2022/11/18 07:15:46;;;;;;;0.20;0.20;;;;;;;;;;5095668;28;20032;-73
2022/11/18 07:18:12;;;;;;;0.20;0.20;;;;;;;;;;5093995;27;20527;-73
2022/11/18 07:20:37;;;;;;;0.22;0.22;;;;;;;;;;5100218;28;20039;-73
2022/11/18 07:23:03;;;;;;;0.20;0.20;;;;;;;;;;5107695;28;20135;-74
2022/11/18 07:25:29;;;;;;;0.20;0.20;;;;;;;;;;5104334;27;20050;-73
2022/11/18 07:27:56;;;;;;;0.20;0.20;;;;;;;;;;5098802;28;20108;-73
2022/11/18 07:30:22;;;;;;;0.20;0.20;;;;;;;;;;5107630;28;20030;-72
2022/11/18 07:32:48;;;;;;;0.20;0.20;;;;;;;;;;5104302;28;20523;-73
2022/11/18 07:35:16;;;;;;;0.20;0.20;;;;;;;;;;5102422;28;20028;-72
2022/11/18 07:37:41;;;;;;;12.52;4.68;;;;;;;;;;5093197;28;20035;-72
2022/11/18 07:40:08;;;;;;;0.20;0.20;;;;;;;;;;5106490;28;20084;-72
2022/11/18 07:42:41;;;;;;;0.10;0.10;;;;;;;;;;5098587;28;20285;-73
2022/11/18 07:45:20;;;;;;;0.20;0.20;;;;;;;;;;5094641;28;20043;-71
2022/11/18 07:47:46;;;;;;;0.20;0.20;;;;;;;;;;5096587;28;20012;-72
2022/11/18 07:50:12;;;;;;;0.10;0.10;;;;;;;;;;5091375;28;20024;-72
2022/11/18 07:52:38;;;;;;;0.10;0.10;;;;;;;;;;5102004;28;20027;-72
2022/11/18 07:55:04;;;;;;;0.20;0.20;;;;;;;;;;5089290;28;20047;-72
2022/11/18 07:57:29;;;;;;;0.20;0.20;;;;;;;;;;5093436;28;20102;-72
2022/11/18 07:59:55;;;;;;;0.10;0.10;;;;;;;;;;5096006;28;20097;-73
2022/11/18 08:02:21;;;;;;;0.20;0.20;;;;;;;;;;5088954;28;20020;-73
2022/11/18 08:04:46;;;;;;;0.20;0.20;;;;;;;;;;5089334;28;20084;-73
2022/11/18 08:07:12;;;;;;;0.22;0.22;;;;;;;;;;5097196;28;20039;-73
2022/11/18 08:09:38;;;;;;;0.20;0.20;;;;;;;;;;5089796;28;20050;-72
2022/11/18 08:12:04;;;;;;;0.20;0.20;;;;;;;;;;5091303;28;20031;-74
2022/11/18 08:14:30;;;;;;;0.20;0.20;;;;;;;;;;5095582;28;20027;-73
2022/11/18 08:16:56;;;;;;;0.20;0.20;;;;;;;;;;5087823;28;20024;-72
2022/11/18 08:19:22;;;;;;;0.20;0.20;;;;;;;;;;5088953;28;20044;-73
2022/11/18 08:21:47;;;;;;;0.20;0.20;;;;;;;;;;5088804;28;20035;-71
2022/11/18 08:24:13;;;;;;;0.20;0.20;;;;;;;;;;5086484;28;20056;-72
2022/11/18 08:26:39;;;;;;;0.20;0.20;;;;;;;;;;5085083;28;20085;-72
2022/11/18 08:29:04;;;;;;;0.20;0.20;;;;;;;;;;5093270;28;20054;-71
2022/11/18 08:31:30;;;;;;;0.20;0.20;;;;;;;;;;5087154;28;20028;-71
2022/11/18 08:34:00;;;;;;;0.20;0.20;;;;;;;;;;5088506;28;20047;-72
2022/11/18 08:36:27;;;;;;;0.20;0.20;;;;;;;;;;5109150;28;20032;-72
2022/11/18 08:38:54;;;;;;;0.20;0.20;;;;;;;;;;5106440;28;20040;-71
2022/11/18 08:41:30;;;;;;;0.20;0.20;;;;;;;;;;5098925;28;20021;-73
2022/11/18 08:43:56;;;;;;;0.20;0.20;;;;;;;;;;5089987;28;20028;-72
2022/11/18 08:46:22;;;;;;;3.15;3.03;;;;;;;;;;5089152;28;20024;-72
2022/11/18 08:48:48;;;;;;;0.20;0.20;;;;;;;;;;5087949;28;20038;-72
2022/11/18 08:51:14;;;;;;;0.20;0.20;;;;;;;;;;5093296;28;20012;-72
2022/11/18 08:53:40;;;;;;;0.20;0.20;;;;;;;;;;5084965;28;20035;-72
2022/11/18 08:56:10;;;;;;;0.20;0.20;;;;;;;;;;5086940;28;20032;-71
2022/11/18 08:58:36;;;;;;;0.20;0.20;;;;;;;;;;5086475;28;20137;-71
2022/11/18 09:01:05;;;;;;;0.20;0.20;;;;;;;;;;5090289;28;20008;-71
2022/11/18 09:03:31;;;;;;;0.30;0.30;;;;;;;;;;5091081;28;20084;-71
2022/11/18 09:06:07;;;;;;;9.32;1.00;;;;;;;;;;5086790;28;20036;-73
2022/11/18 09:08:33;;;;;;;3.95;0.80;;;;;;;;;;5096167;28;20059;-73
2022/11/18 09:11:03;;;;;;;4.47;1.85;;;;;;;;;;5090281;28;20080;-73
2022/11/18 09:13:29;;;;;;;10.48;2.25;;;;;;;;;;5088322;28;20069;-73
2022/11/18 09:15:57;;;;;;;9.60;1.58;;;;;;;;;;5087938;28;20480;-72
2022/11/18 09:18:22;;;;;;;23.60;2.08;;;;;;;;;;5086625;28;20498;-72
2022/11/18 09:20:55;;;;;;;6.43;1.58;;;;;;;;;;5087494;28;20115;-72
2022/11/18 09:23:21;;;;;;;8.07;1.38;;;;;;;;;;5088661;28;20038;-73
2022/11/18 09:25:47;;;;;;;8.23;1.95;;;;;;;;;;5100021;28;20032;-73
2022/11/18 09:28:12;;;;;;;15.68;2.13;;;;;;;;;;5087414;28;20020;-72
2022/11/18 09:30:38;;;;;;;3.28;1.38;;;;;;;;;;5087599;28;20043;-72
2022/11/18 09:33:05;;;;;;;8.38;1.75;;;;;;;;;;5087380;28;20066;-72
2022/11/18 09:35:32;;;;;;;17.30;1.65;;;;;;;;;;5087795;28;20073;-74
2022/11/18 09:37:58;;;;;;;4.22;1.50;;;;;;;;;;5087162;28;20070;-73
2022/11/18 09:40:24;;;;;;;11.68;2.15;;;;;;;;;;5086634;28;20475;-73
2022/11/18 09:42:58;;;;;;;9.63;1.27;;;;;;;;;;5097516;28;20035;-71
2022/11/18 09:45:27;;;;;;;3.10;1.00;;;;;;;;;;5106108;28;20024;-72
2022/11/18 09:47:56;;;;;;;9.93;2.08;;;;;;;;;;5108086;28;20467;-71
2022/11/18 09:50:22;;;;;;;10.68;3.30;;;;;;;;;;5094137;28;20032;-74
2022/11/18 09:52:57;;;;;;;3.00;0.98;;;;;;;;;;5091922;28;20032;-71
2022/11/18 09:55:23;;;;;;;15.38;2.78;;;;;;;;;;5087467;28;20340;-72
2022/11/18 09:57:56;;;;;;;14.18;2.80;;;;;;;;;;5087499;28;20353;-72
2022/11/18 10:00:23;;;;;;;17.33;3.72;;;;;;;;;;5092681;28;20044;-71
2022/11/18 10:02:52;;;;;;;2.92;1.58;;;;;;;;;;5093587;28;20032;-72
2022/11/18 10:05:20;;;;;;;7.67;1.27;;;;;;;;;;5089015;28;20038;-70
2022/11/18 10:07:53;;;;;;;5.32;1.55;;;;;;;;;;5090187;28;20040;-73
2022/11/18 10:10:23;;;;;;;5.97;1.00;;;;;;;;;;5091534;28;20779;-71
2022/11/18 10:12:54;;;;;;;4.90;1.60;;;;;;;;;;5087451;28;20040;-72
2022/11/18 10:15:23;;;;;;;3.83;1.23;;;;;;;;;;5087514;28;20032;-72
2022/11/18 10:17:49;;;;;;;11.23;2.23;;;;;;;;;;5089064;28;20032;-73
2022/11/18 10:20:21;;;;;;;16.15;3.20;;;;;;;;;;5089896;28;20305;-73
2022/11/18 10:22:59;;;;;;;9.95;2.85;;;;;;;;;;5086946;28;20433;-73
2022/11/18 10:25:25;;;;;;;14.55;3.47;;;;;;;;;;5086845;28;20119;-73
2022/11/18 10:27:51;;;;;;;11.52;2.15;;;;;;;;;;5100039;28;20131;-73
2022/11/18 10:30:18;;;;;;;10.48;2.65;;;;;;;;;;5104142;28;20074;-73
2022/11/18 10:33:00;;;;;;;12.38;1.70;;;;;;;;;;5107308;28;20032;-73
2022/11/18 10:35:36;;;;;;;14.48;3.60;;;;;;;;;;5097649;28;20380;-72
2022/11/18 10:38:08;;;;;;;7.90;2.45;;;;;;;;;;5096647;28;20024;-74
2022/11/18 10:40:37;;;;;;;12.93;3.40;;;;;;;;;;5099747;28;20044;-73
2022/11/18 10:43:03;;;;;;;8.23;2.35;;;;;;;;;;5101028;28;20109;-78
2022/11/18 10:45:30;;;;;;;17.65;2.17;;;;;;;;;;5095466;28;20105;-79
2022/11/18 10:47:57;;;;;;;8.45;1.88;;;;;;;;;;5098715;28;20189;-76
2022/11/18 10:50:29;;;;;;;10.02;2.05;;;;;;;;;;5095706;28;20099;-77
2022/11/18 10:52:55;;;;;;;9.18;1.58;;;;;;;;;;5097566;28;20024;-78
2022/11/18 10:55:24;;;;;;;8.43;2.17;;;;;;;;;;5099601;28;20035;-75
2022/11/18 10:57:50;;;;;;;;;;;;;;;;;;5103601;28;20670;-75
2022/11/18 11:00:34;;;;;;;14.65;3.53;;;;;;;;;;5093433;28;19919;-71
2022/11/18 11:03:00;;;;;;;6.72;1.50;;;;;;;;;;5090070;28;20429;-73
2022/11/18 11:05:28;;;;;;;9.05;2.17;;;;;;;;;;5096973;28;20020;-72
2022/11/18 11:08:02;;;;;;;15.70;2.60;;;;;;;;;;5101582;28;20862;-72
2022/11/18 11:10:28;;;;;;;14.63;1.60;;;;;;;;;;5100481;28;20035;-73
2022/11/18 11:12:58;;;;;;;5.93;1.23;;;;;;;;;;5097452;28;20044;-71
2022/11/18 11:15:31;;;;;;;5.68;1.80;;;;;;;;;;5101015;28;20494;-71
2022/11/18 11:20:43;;;;;;;8.38;1.73;;;;;;;;;;5093064;28;20572;-74
2022/11/18 11:23:10;;;;;;;7.05;1.90;;;;;;;;;;5095385;28;20762;-71
2022/11/18 11:25:41;;;;;;;4.13;1.83;;;;;;;;;;5103765;28;20039;-73
2022/11/18 11:28:21;;;;;;;3.58;1.63;;;;;;;;;;5093731;28;20032;-71
2022/11/18 11:30:54;;;;;;;12.98;1.75;;;;;;;;;;5094846;28;20106;-72
2022/11/18 11:33:38;;;;;;;7.20;1.45;;;;;;;;;;5094781;28;20036;-73
2022/11/18 11:36:06;;;;;;;9.15;2.60;;;;;;;;;;5097913;28;20027;-70
2022/11/18 11:38:32;;;;;;;5.85;1.85;;;;;;;;;;5104875;28;20020;-72
2022/11/18 11:40:58;;;;;;;9.63;1.42;;;;;;;;;;5101493;28;20442;-72
2022/11/18 11:43:42;;;;;;;5.40;1.10;;;;;;;;;;5092169;28;20016;-71
2022/11/18 11:46:18;;;;;;;8.73;2.03;;;;;;;;;;5098698;28;20537;-70
2022/11/18 11:48:51;;;;;;;5.03;1.23;;;;;;;;;;5095140;28;20353;-71
2022/11/18 11:51:23;;;;;;;8.27;1.02;;;;;;;;;;5092144;28;20039;-72
2022/11/18 11:54:04;;;;;;;2.75;0.60;;;;;;;;;;5089140;28;20028;-71
2022/11/18 11:56:39;;;;;;;5.20;1.27;;;;;;;;;;5090644;28;20024;-73
2022/11/18 11:59:14;;;;;;;8.20;2.25;;;;;;;;;;5109782;28;20028;-72
2022/11/18 12:01:45;;;;;;;12.68;2.78;;;;;;;;;;5098501;28;20542;-72
2022/11/18 12:04:11;;;;;;;17.75;2.53;;;;;;;;;;5097537;28;20954;-71
2022/11/18 12:06:38;;;;;;;10.90;1.60;;;;;;;;;;5097889;28;20103;-74
2022/11/18 12:09:20;;;;;;;12.52;2.65;;;;;;;;;;5091299;28;20527;-74
2022/11/18 12:11:55;;;;;;;14.05;4.57;;;;;;;;;;5097841;28;20020;-76
2022/11/18 12:14:21;;;;;;;7.65;1.55;;;;;;;;;;5094194;28;20076;-76
2022/11/18 12:16:49;;;;;;;13.82;1.65;;;;;;;;;;5098973;27;20023;-75
2022/11/18 12:19:17;;;;;;;9.10;2.72;;;;;;;;;;5098295;28;20093;-76
2022/11/18 12:21:45;;;;;;;5.15;1.42;;;;;;;;;;5099661;28;20039;-76
2022/11/18 12:24:17;;;;;;;7.83;1.53;;;;;;;;;;5094159;28;20625;-74
2022/11/18 12:26:44;;;;;;;1.55;0.57;;;;;;;;;;5093852;28;20032;-74
2022/11/18 12:29:19;;;;;;;2.40;1.20;;;;;;;;;;5087318;28;20032;-75
2022/11/18 12:31:53;;;;;;;4.60;1.33;;;;;;;;;;5088155;28;20032;-76
2022/11/18 12:34:19;;;;;;;12.90;2.95;;;;;;;;;;5096591;28;20040;-74
2022/11/18 12:36:45;;;;;;;10.55;2.28;;;;;;;;;;5095770;28;20100;-75
2022/11/18 12:39:23;;;;;;;10.77;1.83;;;;;;;;;;5093621;28;20348;-76
2022/11/18 12:44:34;;;;;;;12.73;2.28;;;;;;;;;;5098971;28;20020;-76
2022/11/18 12:47:01;;;;;;;13.32;2.50;;;;;;;;;;5093365;27;20028;-73
2022/11/18 12:49:26;;;;;;;6.25;1.50;;;;;;;;;;5100596;28;20030;-76
2022/11/18 12:51:53;;;;;;;21.65;3.15;;;;;;;;;;5097787;28;20023;-76
2022/11/18 12:54:40;;;;;;;7.47;1.52;;;;;;;;;;5094748;28;20031;-74
2022/11/18 12:57:24;;;;;;;7.60;2.35;;;;;;;;;;5080818;28;20044;-76
2022/11/18 12:59:50;;;;;;;4.78;1.17;;;;;;;;;;5092743;28;20099;-74
2022/11/18 13:02:16;;;;;;;9.57;2.47;;;;;;;;;;5094990;28;20035;-75
2022/11/18 13:04:42;;;;;;;8.57;2.10;;;;;;;;;;5094690;28;20031;-75
2022/11/18 13:08:11;;;;;;;11.88;2.03;;;;;;;;;;5096939;28;20028;-74
2022/11/18 13:09:59;;;;;;;8.07;1.55;;;;;;;;;;5096746;28;20028;-76
2022/11/18 13:12:28;;;;;;;6.15;1.17;;;;;;;;;;5096465;28;20024;-74
2022/11/18 13:17:53;;;;;;;11.20;2.05;;;;;;;;;;5089459;28;20035;-74
2022/11/18 13:20:19;;;;;;;1.55;0.77;;;;;;;;;;5095239;28;20400;-75
2022/11/18 13:25:33;;;;;;;13.93;1.85;;;;;;;;;;5096140;28;20366;-73
2022/11/18 13:28:08;;;;;;;11.55;1.85;;;;;;;;;;5097131;28;20012;-75
2022/11/18 13:30:36;;;;;;;8.05;2.08;;;;;;;;;;5095122;28;20028;-74
2022/11/18 13:33:02;;;;;;;3.03;1.08;;;;;;;;;;5091791;28;20458;-75
2022/11/18 13:35:28;;;;;;;7.43;2.63;;;;;;;;;;5099531;28;20055;-74
2022/11/18 13:38:02;;;;;;;7.10;2.00;;;;;;;;;;5087565;28;20392;-74
2022/11/18 13:40:29;;;;;;;10.02;2.63;;;;;;;;;;5092860;28;20042;-74
2022/11/18 13:42:55;;;;;;;7.00;1.65;;;;;;;;;;5097909;28;20031;-75
2022/11/18 13:45:24;;;;;;;0.88;0.70;;;;;;;;;;5103836;28;20028;-75
2022/11/18 13:47:52;;;;;;;7.38;2.22;;;;;;;;;;5086230;28;20112;-75
2022/11/18 13:50:30;;;;;;;4.68;1.13;;;;;;;;;;5091246;28;20052;-75
2022/11/18 13:53:14;;;;;;;10.30;1.75;;;;;;;;;;5095749;28;20031;-74
2022/11/18 13:55:55;;;;;;;12.98;2.83;;;;;;;;;;5090206;28;20023;-72
2022/11/18 13:58:38;;;;;;;6.53;1.95;;;;;;;;;;5086056;28;20016;-73
2022/11/18 14:01:15;;;;;;;20.02;3.33;;;;;;;;;;5092834;28;20054;-75
2022/11/18 14:03:44;;;;;;;8.57;1.65;;;;;;;;;;5093751;28;20175;-75
2022/11/18 14:06:10;;;;;;;17.42;1.75;;;;;;;;;;5085693;28;20059;-74
2022/11/18 14:08:37;;;;;;;12.88;2.03;;;;;;;;;;5087315;28;20059;-74
2022/11/18 14:11:04;;;;;;;16.70;4.53;;;;;;;;;;5085721;28;20036;-74
2022/11/18 14:13:30;;;;;;;20.88;3.15;;;;;;;;;;5101742;28;20102;-72
2022/11/18 14:15:57;;;;;;;10.55;0.85;;;;;;;;;;5098463;28;20051;-73
2022/11/18 14:18:28;;;;;;;1.67;0.73;;;;;;;;;;5086707;28;20471;-74
2022/11/18 14:20:54;;;;;;;10.77;1.98;;;;;;;;;;5105702;28;20047;-74
2022/11/18 14:23:24;;;;;;;3.15;1.15;;;;;;;;;;5098258;28;20224;-72
2022/11/18 14:25:50;;;;;;;11.35;2.42;;;;;;;;;;5096762;28;20039;-74
2022/11/18 14:28:21;;;;;;;3.85;2.25;;;;;;;;;;5094084;28;20028;-74
2022/11/18 14:31:03;;;;;;;11.98;0.82;;;;;;;;;;5100978;28;20026;-74
2022/11/18 14:33:30;;;;;;;10.07;1.10;;;;;;;;;;5100255;28;20043;-73
2022/11/18 14:35:58;;;;;;;2.90;0.80;;;;;;;;;;5086197;28;20040;-72
2022/11/18 14:38:45;;;;;;;8.10;2.30;;;;;;;;;;5085760;28;20032;-73
2022/11/18 14:41:12;;;;;;;9.68;2.67;;;;;;;;;;5087044;28;20044;-73
2022/11/18 14:43:38;;;;;;;9.32;2.00;;;;;;;;;;5085432;28;20013;-74
2022/11/18 14:46:11;;;;;;;3.80;1.58;;;;;;;;;;5089963;28;20050;-73
2022/11/18 14:48:37;;;;;;;19.77;2.08;;;;;;;;;;5097869;28;20024;-74
2022/11/18 14:51:03;;;;;;;10.80;2.13;;;;;;;;;;5099351;28;20038;-74
2022/11/18 14:53:29;;;;;;;9.95;1.83;;;;;;;;;;5106384;28;20114;-74
2022/11/18 14:55:57;;;;;;;7.82;1.85;;;;;;;;;;5106256;28;20524;-74
2022/11/18 14:58:23;;;;;;;6.18;1.55;;;;;;;;;;5091771;28;20032;-73
2022/11/18 15:00:49;;;;;;;8.02;1.95;;;;;;;;;;5094079;28;20604;-74
2022/11/18 15:03:15;;;;;;;41.55;2.53;;;;;;;;;;5103272;27;20038;-73
2022/11/18 15:05:41;;;;;;;9.43;1.52;;;;;;;;;;5034255;23;20041;-73
2022/11/18 15:08:07;;;;;;;2.50;0.68;;;;;;;;;;5022652;28;20036;-74
2022/11/18 15:10:33;;;;;;;1.27;0.35;;;;;;;;;;5023649;28;20021;-72
2022/11/18 15:12:59;;;;;;;12.68;2.22;;;;;;;;;;5022378;28;20108;-73
2022/11/18 15:15:25;;;;;;;11.82;2.70;;;;;;;;;;5019305;28;20018;-74